createdAt,value
2018-07-14T00:00:19.934Z,19.97
2018-07-14T00:02:50.510Z,23.20
2018-07-14T00:05:21.422Z,25.77
2018-07-14T00:07:52.113Z,20.57
2018-07-14T00:10:22.705Z,20.73
2018-07-14T00:12:53.638Z,20.53
2018-07-14T00:15:27.831Z,21.37
2018-07-14T00:17:58.665Z,20.13
2018-07-14T00:20:29.374Z,25.90
2018-07-14T00:23:00.228Z,20.77
2018-07-14T00:25:35.912Z,22.67
2018-07-14T00:28:06.685Z,19.07
2018-07-14T00:30:37.434Z,20.77
2018-07-14T00:33:08.110Z,19.43
2018-07-14T00:35:38.749Z,19.73
2018-07-14T00:38:09.431Z,19.20
2018-07-14T00:40:40.130Z,20.10
2018-07-14T00:43:10.820Z,19.50
2018-07-14T00:45:41.316Z,19.10
2018-07-14T00:48:11.949Z,25.73
2018-07-14T00:50:42.677Z,20.27
2018-07-14T00:53:13.425Z,20.03
2018-07-14T00:55:44.025Z,16.90
2018-07-14T00:58:14.712Z,18.13
2018-07-14T01:00:45.307Z,22.20
2018-07-14T01:03:16.133Z,20.80
2018-07-14T01:05:46.641Z,18.23
2018-07-14T01:08:17.350Z,18.43
2018-07-14T01:10:47.889Z,18.83
2018-07-14T01:13:18.581Z,16.80
2018-07-14T01:15:49.417Z,16.07
2018-07-14T01:18:20.512Z,15.93
2018-07-14T01:20:51.208Z,19.43
2018-07-14T01:23:21.997Z,16.40
2018-07-14T01:25:52.693Z,17.90
2018-07-14T01:28:23.499Z,20.10
2018-07-14T01:30:54.197Z,16.37
2018-07-14T01:33:24.893Z,16.97
2018-07-14T01:35:55.549Z,16.97
2018-07-14T01:38:25.874Z,18.73
2018-07-14T01:40:56.565Z,17.13
2018-07-14T01:43:27.336Z,17.83
2018-07-14T01:45:58.010Z,16.27
2018-07-14T01:48:28.722Z,17.93
2018-07-14T01:50:59.225Z,20.23
2018-07-14T01:53:29.854Z,19.17
2018-07-14T01:56:00.493Z,18.90
2018-07-14T01:58:31.079Z,19.43
2018-07-14T02:01:01.683Z,19.53
2018-07-14T02:03:32.641Z,17.30
2018-07-14T02:06:03.105Z,18.73
2018-07-14T02:08:33.873Z,16.77
2018-07-14T02:11:06.533Z,19.23
2018-07-14T02:13:37.281Z,18.47
2018-07-14T02:16:08.110Z,17.17
2018-07-14T02:18:38.428Z,16.20
2018-07-14T02:21:09.264Z,17.33
2018-07-14T02:23:40.045Z,19.10
2018-07-14T02:26:10.633Z,20.87
2018-07-14T02:28:42.865Z,19.97
2018-07-14T02:31:13.548Z,23.20
2018-07-14T02:33:44.061Z,61.60
2018-07-14T02:36:15.217Z,59.00
2018-07-14T02:38:46.050Z,73.97
2018-07-14T02:41:16.729Z,47.67
2018-07-14T02:43:47.439Z,37.93
2018-07-14T02:46:17.999Z,29.00
2018-07-14T02:48:48.833Z,23.23
2018-07-14T02:51:19.450Z,24.77
2018-07-14T02:53:50.138Z,25.47
2018-07-14T02:56:20.753Z,27.97
2018-07-14T02:58:51.689Z,23.37
2018-07-14T03:01:22.318Z,22.33
2018-07-14T03:03:53.058Z,21.73
2018-07-14T03:06:23.723Z,21.53
2018-07-14T03:08:54.297Z,23.13
2018-07-14T03:11:24.769Z,24.10
2018-07-14T03:13:55.653Z,23.53
2018-07-14T03:16:26.279Z,21.17
2018-07-14T03:18:56.758Z,22.20
2018-07-14T03:21:26.698Z,22.17
2018-07-14T03:23:57.110Z,20.37
2018-07-14T03:26:27.673Z,21.43
2018-07-14T03:28:58.062Z,21.57
2018-07-14T03:31:28.457Z,22.30
2018-07-14T03:33:58.856Z,21.13
2018-07-14T03:36:29.282Z,19.53
2018-07-14T03:38:59.638Z,21.47
2018-07-14T03:41:29.995Z,19.33
2018-07-14T03:44:00.512Z,20.30
2018-07-14T03:46:31.946Z,18.47
2018-07-14T03:49:02.144Z,18.50
2018-07-14T03:51:40.265Z,18.47
2018-07-14T03:54:10.960Z,19.17
2018-07-14T03:56:42.073Z,25.37
2018-07-14T03:59:12.741Z,43.53
2018-07-14T04:01:43.466Z,30.97
2018-07-14T04:04:14.311Z,26.50
2018-07-14T04:06:44.930Z,21.23
2018-07-14T04:09:15.450Z,25.87
2018-07-14T04:11:46.047Z,20.40
2018-07-14T04:14:16.349Z,17.60
2018-07-14T04:16:46.825Z,20.73
2018-07-14T04:19:17.136Z,23.50
2018-07-14T04:21:47.459Z,22.47
2018-07-14T04:24:18.069Z,17.70
2018-07-14T04:26:48.417Z,18.10
2018-07-14T04:29:18.834Z,18.60
2018-07-14T04:31:49.218Z,16.00
2018-07-14T04:34:19.765Z,16.30
2018-07-14T04:36:50.130Z,16.60
2018-07-14T04:39:21.033Z,20.60
2018-07-14T04:41:51.393Z,15.07
2018-07-14T04:44:21.996Z,17.23
2018-07-14T04:46:52.425Z,20.53
2018-07-14T04:49:23.282Z,16.10
2018-07-14T04:51:53.663Z,15.77
2018-07-14T04:54:24.210Z,17.40
2018-07-14T04:56:54.094Z,13.80
2018-07-14T04:59:25.009Z,16.83
2018-07-14T05:01:55.714Z,12.70
2018-07-14T05:04:26.439Z,11.47
2018-07-14T05:06:57.278Z,10.13
2018-07-14T05:09:28.046Z,11.47
2018-07-14T05:11:58.746Z,11.07
2018-07-14T05:14:29.478Z,9.93
2018-07-14T05:17:00.157Z,8.93
2018-07-14T05:19:30.842Z,16.27
2018-07-14T05:22:01.533Z,11.60
2018-07-14T05:24:33.380Z,17.20
2018-07-14T05:27:04.171Z,13.60
2018-07-14T05:29:35.014Z,10.70
2018-07-14T05:32:05.681Z,10.07
2018-07-14T05:34:36.781Z,17.03
2018-07-14T05:37:07.590Z,16.30
2018-07-14T05:39:39.988Z,16.77
2018-07-14T05:42:10.677Z,18.10
2018-07-14T05:44:41.516Z,11.03
2018-07-14T05:47:12.231Z,6.93
2018-07-14T05:49:42.762Z,12.27
2018-07-14T05:52:13.500Z,15.73
2018-07-14T05:54:44.345Z,10.03
2018-07-14T05:57:15.069Z,11.17
2018-07-14T05:59:45.854Z,14.23
2018-07-14T06:02:16.566Z,9.17
2018-07-14T06:04:46.833Z,9.83
2018-07-14T06:07:17.445Z,11.97
2018-07-14T06:09:48.272Z,13.27
2018-07-14T06:12:18.948Z,13.73
2018-07-14T06:14:49.670Z,20.73
2018-07-14T06:17:20.364Z,8.33
2018-07-14T06:19:51.269Z,10.03
2018-07-14T06:22:21.997Z,20.50
2018-07-14T06:24:52.987Z,6.17
2018-07-14T06:27:23.629Z,13.70
2018-07-14T06:29:54.601Z,10.50
2018-07-14T06:32:25.269Z,9.10
2018-07-14T06:34:55.757Z,14.57
2018-07-14T06:37:26.109Z,8.27
2018-07-14T06:39:56.582Z,9.27
2018-07-14T06:42:26.964Z,6.97
2018-07-14T06:44:57.434Z,5.60
2018-07-14T06:47:27.876Z,6.33
2018-07-14T06:49:59.428Z,6.10
2018-07-14T06:52:29.970Z,8.30
2018-07-14T06:55:00.446Z,13.20
2018-07-14T06:57:30.782Z,6.33
2018-07-14T07:00:01.586Z,8.43
2018-07-14T07:02:31.906Z,5.77
2018-07-14T07:05:02.850Z,3.03
2018-07-14T07:07:38.186Z,11.47
2018-07-14T07:10:09.026Z,11.30
2018-07-14T07:12:39.681Z,4.77
2018-07-14T07:15:10.516Z,7.03
2018-07-14T07:17:40.945Z,9.50
2018-07-14T07:20:11.692Z,11.00
2018-07-14T07:22:42.081Z,23.43
2018-07-14T07:25:13.014Z,6.47
2018-07-14T07:27:43.215Z,7.10
2018-07-14T07:30:14.142Z,4.43
2018-07-14T07:32:44.801Z,3.23
2018-07-14T07:35:15.679Z,5.93
2018-07-14T07:37:46.371Z,2.80
2018-07-14T07:40:17.042Z,6.57
2018-07-14T07:42:47.357Z,2.20
2018-07-14T07:45:17.974Z,4.40
2018-07-14T07:47:48.809Z,11.20
2018-07-14T07:50:20.562Z,5.80
2018-07-14T07:52:50.861Z,3.43
2018-07-14T07:55:21.445Z,5.23
2018-07-14T07:57:52.053Z,7.20
2018-07-14T08:00:22.389Z,4.60
2018-07-14T08:02:53.123Z,2.60
2018-07-14T08:05:24.337Z,5.33
2018-07-14T08:07:55.106Z,8.47
2018-07-14T08:10:26.009Z,5.03
2018-07-14T08:12:56.619Z,3.67
2018-07-14T08:15:27.425Z,5.97
2018-07-14T08:17:58.549Z,4.77
2018-07-14T08:20:29.364Z,6.20
2018-07-14T08:22:59.925Z,2.17
2018-07-14T08:25:30.629Z,7.50
2018-07-14T08:28:01.322Z,1.93
2018-07-14T08:30:32.321Z,6.47
2018-07-14T08:33:03.030Z,5.55
2018-07-14T08:35:34.139Z,2.35
2018-07-14T08:38:04.812Z,6.33
2018-07-14T08:40:35.553Z,8.47
2018-07-14T08:43:06.350Z,4.20
2018-07-14T08:45:37.474Z,6.22
2018-07-14T08:48:07.821Z,7.83
2018-07-14T08:50:38.550Z,2.92
2018-07-14T08:53:09.434Z,9.13
2018-07-14T08:55:40.650Z,2.17
2018-07-14T08:58:11.229Z,5.37
2018-07-14T09:00:42.093Z,4.20
2018-07-14T09:03:12.421Z,3.35
2018-07-14T09:05:43.182Z,2.65
2018-07-14T09:08:13.978Z,2.95
2018-07-14T09:10:44.978Z,8.35
2018-07-14T09:13:15.649Z,6.62
2018-07-14T09:15:46.559Z,4.50
2018-07-14T09:18:17.058Z,7.87
2018-07-14T09:20:47.525Z,12.78
2018-07-14T09:23:18.281Z,6.65
2018-07-14T09:25:49.057Z,3.20
2018-07-14T09:28:19.747Z,5.30
2018-07-14T09:30:50.449Z,4.83
2018-07-14T09:33:20.983Z,3.30
2018-07-14T09:35:51.881Z,3.98
2018-07-14T09:38:22.581Z,7.20
2018-07-14T09:40:53.521Z,3.22
2018-07-14T09:43:24.286Z,3.80
2018-07-14T09:45:54.949Z,6.80
2018-07-14T09:48:25.642Z,2.08
2018-07-14T09:50:56.552Z,3.02
2018-07-14T09:53:27.293Z,1.42
2018-07-14T09:55:58.282Z,5.90
2018-07-14T09:58:28.933Z,2.90
2018-07-14T10:01:04.387Z,1.72
2018-07-14T10:03:35.042Z,3.25
2018-07-14T10:06:05.938Z,1.75
2018-07-14T10:08:36.646Z,1.90
2018-07-14T10:11:07.313Z,1.60
2018-07-14T10:13:37.865Z,4.40
2018-07-14T10:16:08.557Z,1.52
2018-07-14T10:18:39.223Z,4.78
2018-07-14T10:21:10.102Z,5.83
2018-07-14T10:23:40.625Z,1.85
2018-07-14T10:26:11.455Z,2.40
2018-07-14T10:28:42.083Z,3.45
2018-07-14T10:31:12.902Z,5.97
2018-07-14T10:33:43.824Z,3.47
2018-07-14T10:36:14.571Z,1.65
2018-07-14T10:38:45.377Z,3.47
2018-07-14T10:41:16.063Z,1.77
2018-07-14T10:43:46.773Z,3.75
2018-07-14T10:46:17.699Z,6.30
2018-07-14T10:48:48.442Z,3.22
2018-07-14T10:51:19.246Z,7.40
2018-07-14T10:53:49.829Z,2.25
2018-07-14T10:56:20.604Z,1.30
2018-07-14T10:58:51.270Z,4.50
2018-07-14T11:01:22.213Z,2.42
2018-07-14T11:03:52.953Z,2.98
2018-07-14T11:06:23.925Z,1.17
2018-07-14T11:08:54.510Z,8.60
2018-07-14T11:11:25.530Z,3.65
2018-07-14T11:13:56.090Z,4.30
2018-07-14T11:16:26.774Z,3.75
2018-07-14T11:18:57.530Z,3.62
2018-07-14T11:21:28.233Z,1.12
2018-07-14T11:23:58.962Z,1.27
2018-07-14T11:26:30.172Z,1.98
2018-07-14T11:29:00.341Z,3.70
2018-07-14T11:31:31.170Z,1.40
2018-07-14T11:34:01.957Z,3.58
2018-07-14T11:36:32.886Z,3.77
2018-07-14T11:39:03.878Z,2.72
2018-07-14T11:41:34.703Z,2.40
2018-07-14T11:44:05.663Z,2.60
2018-07-14T11:46:36.766Z,4.42
2018-07-14T11:49:07.486Z,3.20
2018-07-14T11:51:38.261Z,1.27
2018-07-14T11:54:08.880Z,1.75
2018-07-14T11:56:39.645Z,0.90
2018-07-14T11:59:10.319Z,1.87
2018-07-14T12:01:41.159Z,2.08
2018-07-14T12:04:11.745Z,2.60
2018-07-14T12:06:42.472Z,2.90
2018-07-14T12:09:13.240Z,5.37
2018-07-14T12:11:44.118Z,1.37
2018-07-14T12:14:14.822Z,6.33
2018-07-14T12:16:45.823Z,4.10
2018-07-14T12:19:16.486Z,1.20
2018-07-14T12:21:47.365Z,1.40
2018-07-14T12:24:18.037Z,8.33
2018-07-14T12:26:48.927Z,1.10
2018-07-14T12:29:19.438Z,2.35
2018-07-14T12:31:50.218Z,8.63
2018-07-14T12:34:20.889Z,11.95
2018-07-14T12:36:52.746Z,1.95
2018-07-14T12:39:23.626Z,3.65
2018-07-14T12:41:54.558Z,2.58
2018-07-14T12:44:25.314Z,1.05
2018-07-14T12:46:56.278Z,1.40
2018-07-14T12:49:26.975Z,2.98
2018-07-14T12:51:57.895Z,2.47
2018-07-14T12:54:28.770Z,2.20
2018-07-14T12:56:59.805Z,2.77
2018-07-14T12:59:30.523Z,3.47
2018-07-14T13:02:01.406Z,3.22
2018-07-14T13:04:32.037Z,4.75
2018-07-14T13:07:03.079Z,2.70
2018-07-14T13:09:33.867Z,1.85
2018-07-14T13:12:04.748Z,1.98
2018-07-14T13:14:35.441Z,1.82
2018-07-14T13:17:06.508Z,3.45
2018-07-14T13:19:37.246Z,4.65
2018-07-14T13:22:08.350Z,4.37
2018-07-14T13:24:39.031Z,5.30
2018-07-14T13:27:10.137Z,1.45
2018-07-14T13:29:40.974Z,3.37
2018-07-14T13:32:11.882Z,6.20
2018-07-14T13:34:42.409Z,8.60
2018-07-14T13:37:13.238Z,5.15
2018-07-14T13:39:43.960Z,2.72
2018-07-14T13:42:14.758Z,4.00
2018-07-14T13:44:45.515Z,6.58
2018-07-14T13:47:16.438Z,5.72
2018-07-14T13:49:47.152Z,3.45
2018-07-14T13:52:18.023Z,1.17
2018-07-14T13:54:48.750Z,3.52
2018-07-14T13:57:19.554Z,5.90
2018-07-14T13:59:50.223Z,5.03
2018-07-14T14:02:21.137Z,2.72
2018-07-14T14:04:51.726Z,4.42
2018-07-14T14:07:22.623Z,6.92
2018-07-14T14:09:53.301Z,1.77
2018-07-14T14:12:24.386Z,3.62
2018-07-14T14:14:55.273Z,5.17
2018-07-14T14:17:26.226Z,4.28
2018-07-14T14:19:57.127Z,2.77
2018-07-14T14:22:27.853Z,8.40
2018-07-14T14:24:58.678Z,2.70
2018-07-14T14:27:29.669Z,1.25
2018-07-14T14:30:00.282Z,2.98
2018-07-14T14:32:31.129Z,2.35
2018-07-14T14:35:01.827Z,2.62
2018-07-14T14:37:32.013Z,2.05
2018-07-14T14:40:02.370Z,2.37
2018-07-14T14:42:32.733Z,4.03
2018-07-14T14:45:03.139Z,1.62
2018-07-14T14:47:34.006Z,6.37
2018-07-14T14:50:04.761Z,6.55
2018-07-14T14:52:35.673Z,2.98
2018-07-14T14:55:06.602Z,2.08
2018-07-14T14:57:37.306Z,4.12
2018-07-14T15:00:08.032Z,1.40
2018-07-14T15:02:38.817Z,6.15
2018-07-14T15:05:09.306Z,2.45
2018-07-14T15:07:39.985Z,4.42
2018-07-14T15:10:10.762Z,18.07
2018-07-14T15:12:41.677Z,2.47
2018-07-14T15:15:12.331Z,2.10
2018-07-14T15:17:43.222Z,3.15
2018-07-14T15:20:13.594Z,5.92
2018-07-14T15:22:44.634Z,4.67
2018-07-14T15:25:15.406Z,1.67
2018-07-14T15:27:45.991Z,2.98
2018-07-14T15:30:16.709Z,1.82
2018-07-14T15:32:47.453Z,4.65
2018-07-14T15:35:18.058Z,2.45
2018-07-14T15:37:48.778Z,7.40
2018-07-14T15:40:19.606Z,5.33
2018-07-14T15:42:50.211Z,4.72
2018-07-14T15:45:21.025Z,3.40
2018-07-14T15:47:51.934Z,3.67
2018-07-14T15:50:22.726Z,4.55
2018-07-14T15:52:53.939Z,3.55
2018-07-14T15:55:25.222Z,5.47
2018-07-14T15:57:56.133Z,8.90
2018-07-14T16:00:26.702Z,6.35
2018-07-14T16:02:57.602Z,2.83
2018-07-14T16:05:28.354Z,3.55
2018-07-14T16:07:59.251Z,5.95
2018-07-14T16:10:29.870Z,3.95
2018-07-14T16:13:00.480Z,6.85
2018-07-14T16:15:31.244Z,4.37
2018-07-14T16:18:01.931Z,4.33
2018-07-14T16:20:32.617Z,3.62
2018-07-14T16:23:03.594Z,2.02
2018-07-14T16:25:34.187Z,4.85
2018-07-14T16:28:05.039Z,2.77
2018-07-14T16:30:35.113Z,2.47
2018-07-14T16:33:05.982Z,3.15
2018-07-14T16:35:36.899Z,5.85
2018-07-14T16:38:07.642Z,3.17
2018-07-14T16:40:38.445Z,7.10
2018-07-14T16:43:09.187Z,5.87
2018-07-14T16:45:39.951Z,6.53
2018-07-14T16:48:11.066Z,2.03
2018-07-14T16:50:41.721Z,3.62
2018-07-14T16:53:12.497Z,5.35
2018-07-14T16:55:43.247Z,2.95
2018-07-14T16:58:14.329Z,3.20
2018-07-14T17:00:45.214Z,7.45
2018-07-14T17:03:16.008Z,2.25
2018-07-14T17:05:46.572Z,8.28
2018-07-14T17:08:17.319Z,5.05
2018-07-14T17:10:48.007Z,6.00
2018-07-14T17:13:18.710Z,6.67
2018-07-14T17:15:49.414Z,4.57
2018-07-14T17:18:20.130Z,4.53
2018-07-14T17:20:50.523Z,8.27
2018-07-14T17:23:20.830Z,4.63
2018-07-14T17:25:51.173Z,26.27
2018-07-14T17:28:21.509Z,12.33
2018-07-14T17:30:51.793Z,7.53
2018-07-14T17:33:22.597Z,4.07
2018-07-14T17:35:53.297Z,49.40
2018-07-14T17:38:24.422Z,10.40
2018-07-14T17:40:55.060Z,12.00
2018-07-14T17:43:25.966Z,23.37
2018-07-14T17:45:56.674Z,3.83
2018-07-14T17:48:27.547Z,23.33
2018-07-14T17:50:58.252Z,15.63
2018-07-14T17:53:28.914Z,11.37
2018-07-14T17:55:59.566Z,7.60
2018-07-14T17:58:30.441Z,7.43
2018-07-14T18:01:01.151Z,18.53
2018-07-14T18:03:32.103Z,5.40
2018-07-14T18:06:02.815Z,8.03
2018-07-14T18:08:33.686Z,3.30
2018-07-14T18:11:04.406Z,5.00
2018-07-14T18:13:35.171Z,4.93
2018-07-14T18:16:05.938Z,9.43
2018-07-14T18:18:36.682Z,13.57
2018-07-14T18:21:07.586Z,6.20
2018-07-14T18:23:37.938Z,4.60
2018-07-14T18:26:08.260Z,5.40
2018-07-14T18:28:38.864Z,3.07
2018-07-14T18:31:09.167Z,7.00
2018-07-14T18:33:39.547Z,5.50
2018-07-14T18:36:09.946Z,5.33
2018-07-14T18:38:40.293Z,3.57
2018-07-14T18:41:10.981Z,8.60
2018-07-14T18:43:41.749Z,6.53
2018-07-14T18:46:12.468Z,6.03
2018-07-14T18:48:43.723Z,8.40
2018-07-14T18:51:14.414Z,12.27
2018-07-14T18:53:44.930Z,7.07
2018-07-14T18:56:15.537Z,7.03
2018-07-14T18:58:46.223Z,3.10
2018-07-14T19:01:16.918Z,3.00
2018-07-14T19:03:47.658Z,4.83
2018-07-14T19:06:18.154Z,5.87
2018-07-14T19:08:48.848Z,5.80
2018-07-14T19:11:19.461Z,9.80
2018-07-14T19:13:49.930Z,4.53
2018-07-14T19:16:20.230Z,4.47
2018-07-14T19:18:50.981Z,5.10
2018-07-14T19:21:21.642Z,3.43
2018-07-14T19:23:52.454Z,4.17
2018-07-14T19:26:23.272Z,4.47
2018-07-14T19:28:54.546Z,6.10
2018-07-14T19:31:25.786Z,3.33
2018-07-14T19:33:56.358Z,3.63
2018-07-14T19:36:27.111Z,5.33
2018-07-14T19:38:57.951Z,5.17
2018-07-14T19:41:28.737Z,7.00
2018-07-14T19:43:59.638Z,5.23
2018-07-14T19:46:30.218Z,7.27
2018-07-14T19:49:01.118Z,6.47
2018-07-14T19:51:31.682Z,4.27
2018-07-14T19:54:02.041Z,6.17
2018-07-14T19:56:33.119Z,9.03
2018-07-14T19:59:03.874Z,3.83
2018-07-14T20:01:34.521Z,5.60
2018-07-14T20:04:05.361Z,5.60
2018-07-14T20:06:36.137Z,4.53
2018-07-14T20:09:08.113Z,4.47
2018-07-14T20:11:38.873Z,3.47
2018-07-14T20:14:09.633Z,6.43
2018-07-14T20:16:40.286Z,5.60
2018-07-14T20:19:11.153Z,3.50
2018-07-14T20:21:41.797Z,4.37
2018-07-14T20:24:12.490Z,3.63
2018-07-14T20:26:43.206Z,5.57
2018-07-14T20:29:14.153Z,5.90
2018-07-14T20:31:44.390Z,7.63
2018-07-14T20:34:16.554Z,3.57
2018-07-14T20:36:47.052Z,8.33
2018-07-14T20:39:17.738Z,6.13
2018-07-14T20:41:48.451Z,4.30
2018-07-14T20:44:19.255Z,4.10
2018-07-14T20:46:50.003Z,4.87
2018-07-14T20:49:20.795Z,6.40
2018-07-14T20:51:51.435Z,6.93
2018-07-14T20:54:22.251Z,5.67
2018-07-14T20:56:52.976Z,7.63
2018-07-14T20:59:23.897Z,7.00
2018-07-14T21:01:54.594Z,4.50
2018-07-14T21:04:25.791Z,6.83
2018-07-14T21:06:56.483Z,5.33
2018-07-14T21:09:27.588Z,7.10
2018-07-14T21:11:58.250Z,6.23
2018-07-14T21:14:28.989Z,7.10
2018-07-14T21:16:59.690Z,9.33
2018-07-14T21:19:30.857Z,5.80
2018-07-14T21:22:01.465Z,4.30
2018-07-14T21:24:32.247Z,6.70
2018-07-14T21:27:02.969Z,11.97
2018-07-14T21:29:33.770Z,7.20
2018-07-14T21:32:04.374Z,8.03
2018-07-14T21:34:35.150Z,8.33
2018-07-14T21:37:05.836Z,4.43
2018-07-14T21:39:38.341Z,5.77
2018-07-14T21:42:09.030Z,6.20
2018-07-14T21:44:39.733Z,4.83
2018-07-14T21:47:10.411Z,5.23
2018-07-14T21:49:41.877Z,5.90
2018-07-14T21:52:12.429Z,4.17
2018-07-14T21:54:43.489Z,5.13
2018-07-14T21:57:14.169Z,7.23
2018-07-14T21:59:44.781Z,5.30
2018-07-14T22:02:15.449Z,13.37
2018-07-14T22:04:46.137Z,5.67
2018-07-14T22:07:16.912Z,6.53
2018-07-14T22:09:47.638Z,10.07
2018-07-14T22:12:18.318Z,8.20
2018-07-14T22:14:49.035Z,6.90
2018-07-14T22:17:19.794Z,7.13
2018-07-14T22:19:50.401Z,8.10
2018-07-14T22:22:21.357Z,7.27
2018-07-14T22:24:52.082Z,6.10
2018-07-14T22:27:22.813Z,5.73
2018-07-14T22:29:53.498Z,6.43
2018-07-14T22:32:24.254Z,7.07
2018-07-14T22:34:55.187Z,6.33
2018-07-14T22:37:25.961Z,10.10
2018-07-14T22:39:56.686Z,6.50
2018-07-14T22:42:27.482Z,5.07
2018-07-14T22:44:59.870Z,6.07
2018-07-14T22:47:30.606Z,6.63
2018-07-14T22:50:01.245Z,5.10
2018-07-14T22:52:31.357Z,11.63
2018-07-14T22:55:01.618Z,8.30
2018-07-14T22:57:32.482Z,9.90
2018-07-14T23:00:03.219Z,7.77
2018-07-14T23:02:33.986Z,7.13
2018-07-14T23:05:04.146Z,8.37
2018-07-14T23:07:35.522Z,8.13
2018-07-14T23:10:06.393Z,7.03
2018-07-14T23:12:37.227Z,11.10
2018-07-14T23:15:08.057Z,6.13
2018-07-14T23:17:38.851Z,5.73
2018-07-14T23:20:09.500Z,7.33
2018-07-14T23:22:40.177Z,10.50
2018-07-14T23:25:10.870Z,9.80
2018-07-14T23:27:41.853Z,12.57
2018-07-14T23:30:12.518Z,5.23
2018-07-14T23:32:43.301Z,6.90
2018-07-14T23:35:13.970Z,5.07
2018-07-14T23:37:44.830Z,5.17
2018-07-14T23:40:15.506Z,7.83
2018-07-14T23:42:46.298Z,5.43
2018-07-14T23:45:17.014Z,5.50
2018-07-14T23:47:47.875Z,6.33
2018-07-14T23:50:18.509Z,7.33
2018-07-14T23:52:49.308Z,6.10
2018-07-14T23:55:19.989Z,6.80
2018-07-14T23:57:50.585Z,7.37
